Time;durP1;ratioP1;P1;durP2;ratioP2;P2;SDS_P1;SDS_P2;PMS_P1;PMS_P2;Temp;Humidity;BMP_temperature;BMP_pressure;BME280_temperature;BME280_humidity;BME280_pressure;Samples;Min_cycle;Max_cycle;Signal;HPM_P1;HPM_P2
2022/06/07 00:00:11;;;;;;;;;;;18.50;61.30;;;;;;5094926;28;20011;-48
2022/06/07 00:02:38;;;;;;;;;;;18.60;61.00;;;;;;5094868;28;20316;-54
2022/06/07 00:05:05;;;;;;;;;;;18.70;59.50;;;;;;5095166;28;19930;-53
2022/06/07 00:07:32;;;;;;;;;;;18.80;60.10;;;;;;5127144;27;19912;-48
2022/06/07 00:09:58;;;;;;;;;;;18.60;60.40;;;;;;5095077;28;19962;-50
2022/06/07 00:12:25;;;;;;;;;;;18.60;60.70;;;;;;5095029;28;19911;-53
2022/06/07 00:14:52;;;;;;;;;;;18.70;60.60;;;;;;5094733;28;19995;-52
2022/06/07 00:17:19;;;;;;;;;;;18.70;59.10;;;;;;5093371;28;20060;-49
2022/06/07 00:19:47;;;;;;;;;;;18.70;59.30;;;;;;5094398;28;19928;-61
2022/06/07 00:22:13;;;;;;;;;;;19.00;59.00;;;;;;5094740;28;19909;-54
2022/06/07 00:24:40;;;;;;;;;;;18.90;59.80;;;;;;5094579;28;19916;-52
2022/06/07 00:27:07;;;;;;;;;;;18.90;59.90;;;;;;5094613;28;20274;-57
2022/06/07 00:29:35;;;;;;;;;;;19.00;59.60;;;;;;5094995;28;19908;-50
2022/06/07 00:32:03;;;;;;;;;;;19.00;58.80;;;;;;5093189;28;20369;-44
2022/06/07 00:34:30;;;;;;;;;;;18.80;59.50;;;;;;5094549;28;20046;-45
2022/06/07 00:36:57;;;;;;;;;;;19.00;58.70;;;;;;5093916;28;19943;-58
2022/06/07 00:39:23;;;;;;;;;;;19.30;58.80;;;;;;5094693;28;19943;-56
2022/06/07 00:41:50;;;;;;;;;;;19.40;58.60;;;;;;5094841;28;19908;-47
2022/06/07 00:44:26;;;;;;;;;;;19.50;57.40;;;;;;5094661;28;19998;-49
2022/06/07 00:46:55;;;;;;;;;;;19.40;57.60;;;;;;5094137;28;20399;-56
2022/06/07 00:49:22;;;;;;;;;;;19.30;57.00;;;;;;5093314;28;19912;-58
2022/06/07 00:51:49;;;;;;;;;;;19.40;56.20;;;;;;5094286;28;19908;-56
2022/06/07 00:54:23;;;;;;;;;;;19.50;58.40;;;;;;5094620;28;20245;-58
2022/06/07 00:56:50;;;;;;;;;;;19.40;58.70;;;;;;5094415;28;19954;-49
2022/06/07 00:59:17;;;;;;;;;;;19.50;58.30;;;;;;5093730;28;19922;-51
2022/06/07 01:01:44;;;;;;;;;;;19.60;57.70;;;;;;5126927;27;19908;-60
2022/06/07 01:04:11;;;;;;;;;;;19.70;56.10;;;;;;5094222;28;19916;-52
2022/06/07 01:12:07;;;;;;;;;;;19.70;57.80;;;;;;5093982;28;19918;-55
2022/06/07 01:14:33;;;;;;;;;;;19.70;56.10;;;;;;5093468;28;20403;-58
2022/06/07 01:17:00;;;;;;;;;;;19.50;56.70;;;;;;5093208;28;19908;-49
2022/06/07 01:19:27;;;;;;;;;;;19.60;56.20;;;;;;5093600;28;19916;-54
2022/06/07 01:21:53;;;;;;;;;;;19.80;58.00;;;;;;5093378;28;20273;-53
2022/06/07 01:24:20;;;;;;;;;;;19.90;56.70;;;;;;5093449;28;19915;-59
2022/06/07 01:26:47;;;;;;;;;;;19.70;56.60;;;;;;5093776;28;19908;-48
2022/06/07 01:29:14;;;;;;;;;;;19.50;58.20;;;;;;5092608;28;19908;-50
2022/06/07 01:31:41;;;;;;;;;;;19.30;58.60;;;;;;5125805;27;19908;-53
2022/06/07 01:34:10;;;;;;;;;;;19.50;58.10;;;;;;5093152;28;19908;-44
2022/06/07 01:36:36;;;;;;;;;;;19.60;57.00;;;;;;5091685;28;19908;-50
2022/06/07 01:41:54;;;;;;;;;;;19.60;58.30;;;;;;5093631;28;19914;-44
2022/06/07 01:44:25;;;;;;;;;;;19.80;56.50;;;;;;5093652;28;19915;-41
2022/06/07 01:46:52;;;;;;;;;;;19.90;57.40;;;;;;5093807;28;20013;-48
2022/06/07 01:49:19;;;;;;;;;;;19.80;57.30;;;;;;5092377;28;19908;-51
2022/06/07 01:51:46;;;;;;;;;;;19.90;56.90;;;;;;5092846;28;20220;-55
2022/06/07 01:54:14;;;;;;;;;;;20.10;56.60;;;;;;5093139;28;19942;-47
2022/06/07 01:56:41;;;;;;;;;;;20.20;55.70;;;;;;5092879;28;19965;-52
2022/06/07 01:59:08;;;;;;;;;;;20.20;56.20;;;;;;5092632;28;19916;-46
2022/06/07 02:01:34;;;;;;;;;;;20.20;56.10;;;;;;5088922;28;19924;-42
2022/06/07 02:04:01;;;;;;;;;;;20.10;56.70;;;;;;5090539;28;19922;-45
2022/06/07 02:06:28;;;;;;;;;;;20.20;55.90;;;;;;5089507;28;20363;-50
2022/06/07 02:08:54;;;;;;;;;;;20.30;55.10;;;;;;5086491;28;19959;-48
2022/06/07 02:11:23;;;;;;;;;;;20.30;56.00;;;;;;5083467;28;19954;-46
2022/06/07 02:13:50;;;;;;;;;;;20.20;56.40;;;;;;5082387;28;19916;-48
2022/06/07 02:16:17;;;;;;;;;;;20.30;55.40;;;;;;5086847;28;19943;-46
2022/06/07 02:18:46;;;;;;;;;;;20.40;55.30;;;;;;5078438;28;19912;-45
2022/06/07 02:21:13;;;;;;;;;;;20.50;55.60;;;;;;5068094;28;19942;-45
2022/06/07 02:23:40;;;;;;;;;;;20.40;54.30;;;;;;5076092;28;20023;-51
2022/06/07 02:26:27;;;;;;;;;;;20.50;56.70;;;;;;5074179;28;19956;-48
2022/06/07 02:28:57;;;;;;;;;;;20.50;53.90;;;;;;5072966;28;19947;-47
2022/06/07 02:31:26;;;;;;;;;;;20.60;55.20;;;;;;5078827;28;19911;-50
2022/06/07 02:33:53;;;;;;;;;;;20.70;54.90;;;;;;5082104;28;19941;-49
2022/06/07 02:36:23;;;;;;;;;;;20.60;54.70;;;;;;5080122;28;19953;-44
2022/06/07 02:38:50;;;;;;;;;;;20.60;53.80;;;;;;5085747;28;19916;-49
2022/06/07 02:41:21;;;;;;;;;;;20.50;54.40;;;;;;5080703;28;19908;-42
2022/06/07 02:43:47;;;;;;;;;;;20.50;53.10;;;;;;5075961;28;19908;-41
2022/06/07 02:46:15;;;;;;;;;;;20.40;54.30;;;;;;5087271;28;20279;-41
2022/06/07 02:48:41;;;;;;;;;;;20.30;55.40;;;;;;5081601;28;19908;-46
2022/06/07 02:51:08;;;;;;;;;;;20.50;54.50;;;;;;5080584;28;19969;-40
2022/06/07 02:53:35;;;;;;;;;;;20.60;54.20;;;;;;5081491;28;19908;-40
2022/06/07 02:56:02;;;;;;;;;;;20.60;55.40;;;;;;5080785;28;19928;-42
2022/06/07 02:58:28;;;;;;;;;;;20.60;54.10;;;;;;5085082;28;19915;-41
2022/06/07 03:00:56;;;;;;;;;;;20.80;54.40;;;;;;5085586;28;19912;-43
2022/06/07 03:03:22;;;;;;;;;;;20.90;53.60;;;;;;5084578;28;20065;-42
2022/06/07 03:05:49;;;;;;;;;;;21.00;55.20;;;;;;5082309;28;19929;-47
2022/06/07 03:08:18;;;;;;;;;;;21.00;54.90;;;;;;5088741;28;19928;-41
2022/06/07 03:10:45;;;;;;;;;;;20.90;54.80;;;;;;5077338;28;20118;-41
2022/06/07 03:13:12;;;;;;;;;;;21.00;55.80;;;;;;5088119;28;19908;-39
2022/06/07 03:15:40;;;;;;;;;;;20.80;57.10;;;;;;5092130;28;19915;-41
2022/06/07 03:18:07;;;;;;;;;;;20.90;55.80;;;;;;5086101;28;19912;-44
2022/06/07 03:20:33;;;;;;;;;;;21.00;54.80;;;;;;5084315;28;19955;-41
2022/06/07 03:23:00;;;;;;;;;;;21.30;55.70;;;;;;5085272;28;19909;-46
2022/06/07 03:25:27;;;;;;;;;;;21.50;55.00;;;;;;5087044;28;19911;-46
2022/06/07 03:27:54;;;;;;;;;;;21.60;55.20;;;;;;5088927;28;20007;-48
2022/06/07 03:30:20;;;;;;;;;;;21.60;55.50;;;;;;5075818;28;19908;-49
2022/06/07 03:32:47;;;;;;;;;;;21.60;55.50;;;;;;5083594;28;19912;-47
2022/06/07 03:35:15;;;;;;;;;;;21.50;55.00;;;;;;5090074;28;19916;-59
2022/06/07 03:37:42;;;;;;;;;;;21.60;53.20;;;;;;5085080;28;20264;-54
2022/06/07 03:40:12;;;;;;;;;;;21.40;55.30;;;;;;5081328;28;20318;-47
2022/06/07 03:42:39;;;;;;;;;;;21.50;55.20;;;;;;5085958;28;19915;-43
2022/06/07 03:45:06;;;;;;;;;;;21.40;56.00;;;;;;5085447;28;19950;-45
2022/06/07 03:47:35;;;;;;;;;;;21.20;56.80;;;;;;5084898;28;19920;-51
2022/06/07 03:50:02;;;;;;;;;;;21.40;54.90;;;;;;5082294;28;19908;-42
2022/06/07 03:52:29;;;;;;;;;;;21.50;55.90;;;;;;5086922;28;19908;-54
2022/06/07 03:54:57;;;;;;;;;;;21.60;54.40;;;;;;5084840;28;19912;-53
2022/06/07 03:57:24;;;;;;;;;;;21.50;55.20;;;;;;5087322;28;19912;-50
2022/06/07 03:59:50;;;;;;;;;;;21.40;54.70;;;;;;5084416;28;19916;-45
2022/06/07 04:02:17;;;;;;;;;;;21.30;55.00;;;;;;5082842;28;19989;-54
2022/06/07 04:04:44;;;;;;;;;;;21.20;57.00;;;;;;5089497;28;19916;-62
2022/06/07 04:09:55;;;;;;;;;;;21.30;55.20;;;;;;5079334;28;19927;-59
2022/06/07 04:12:27;;;;;;;;;;;21.30;56.30;;;;;;5079855;28;20330;-57
2022/06/07 04:15:00;;;;;;;;;;;21.40;53.40;;;;;;5085718;28;20382;-52
2022/06/07 04:17:31;;;;;;;;;;;21.50;55.90;;;;;;5085800;28;20022;-47
2022/06/07 04:19:57;;;;;;;;;;;21.50;56.30;;;;;;5062871;28;19923;-56
2022/06/07 04:22:24;;;;;;;;;;;21.50;55.60;;;;;;5082985;28;19908;-56
2022/06/07 04:24:51;;;;;;;;;;;21.50;54.00;;;;;;5087309;28;19908;-52
2022/06/07 04:27:18;;;;;;;;;;;21.60;54.80;;;;;;5069416;28;19919;-61
2022/06/07 04:29:45;;;;;;;;;;;21.60;55.30;;;;;;5083796;28;19915;-60
2022/06/07 04:32:12;;;;;;;;;;;21.70;54.50;;;;;;5085504;28;19916;-60
2022/06/07 04:34:39;;;;;;;;;;;21.60;54.00;;;;;;5089205;28;20012;-55
2022/06/07 04:37:06;;;;;;;;;;;21.70;55.60;;;;;;5085161;28;19970;-51
2022/06/07 04:39:32;;;;;;;;;;;21.70;55.20;;;;;;5080598;28;19974;-54
2022/06/07 04:41:59;;;;;;;;;;;21.80;53.10;;;;;;5085338;28;20351;-54
2022/06/07 04:44:26;;;;;;;;;;;21.80;54.90;;;;;;5077676;28;19974;-57
2022/06/07 04:46:53;;;;;;;;;;;21.60;53.50;;;;;;5083223;28;19920;-61
2022/06/07 04:49:20;;;;;;;;;;;21.60;53.90;;;;;;5080470;28;19916;-58
2022/06/07 04:51:46;;;;;;;;;;;21.50;55.50;;;;;;5085343;28;19953;-49
2022/06/07 04:54:13;;;;;;;;;;;21.60;56.40;;;;;;5085486;28;19978;-60
2022/06/07 04:56:40;;;;;;;;;;;21.70;56.00;;;;;;5085149;28;19908;-56
2022/06/07 04:59:07;;;;;;;;;;;21.70;56.10;;;;;;5082326;28;19923;-59
2022/06/07 05:01:35;;;;;;;;;;;21.90;53.10;;;;;;5085863;28;19951;-62
2022/06/07 05:04:02;;;;;;;;;;;22.00;54.20;;;;;;5084773;28;20298;-58
2022/06/07 05:06:33;;;;;;;;;;;22.10;54.40;;;;;;5085711;28;20821;-54
2022/06/07 05:09:05;;;;;;;;;;;21.90;54.30;;;;;;5082890;28;20340;-46
2022/06/07 05:11:32;;;;;;;;;;;21.80;54.90;;;;;;5087853;28;19919;-53
2022/06/07 05:14:02;;;;;;;;;;;21.50;54.30;;;;;;5087637;28;19908;-56
2022/06/07 05:16:30;;;;;;;;;;;21.30;53.80;;;;;;5085732;28;19939;-57
2022/06/07 05:18:57;;;;;;;;;;;21.30;53.40;;;;;;5084627;28;19917;-54
2022/06/07 05:21:24;;;;;;;;;;;21.00;54.80;;;;;;5086873;28;19947;-52
2022/06/07 05:23:52;;;;;;;;;;;20.80;53.10;;;;;;5087724;28;19914;-48
2022/06/07 05:26:25;;;;;;;;;;;20.50;55.90;;;;;;5085276;28;19912;-49
2022/06/07 05:28:51;;;;;;;;;;;20.40;57.80;;;;;;5084378;28;20551;-51
2022/06/07 05:31:18;;;;;;;;;;;20.40;56.00;;;;;;5084407;28;19912;-58
2022/06/07 05:33:49;;;;;;;;;;;20.30;57.00;;;;;;5084425;28;19923;-46
2022/06/07 05:36:16;;;;;;;;;;;20.30;56.00;;;;;;5086235;28;19961;-50
2022/06/07 05:38:42;;;;;;;;;;;20.20;56.60;;;;;;5087254;28;19957;-56
2022/06/07 05:41:21;;;;;;;;;;;20.20;55.60;;;;;;5081037;28;19976;-53
2022/06/07 05:43:47;;;;;;;;;;;20.10;56.40;;;;;;5086566;28;19912;-49
2022/06/07 05:46:14;;;;;;;;;;;19.90;56.50;;;;;;5088326;28;20056;-46
2022/06/07 05:48:41;;;;;;;;;;;19.70;57.50;;;;;;5065610;28;19908;-43
2022/06/07 05:51:08;;;;;;;;;;;19.50;56.40;;;;;;5080737;28;19913;-48
2022/06/07 05:53:35;;;;;;;;;;;19.40;58.90;;;;;;5087880;28;19915;-42
2022/06/07 05:56:06;;;;;;;;;;;19.20;59.80;;;;;;5085418;28;19909;-42
2022/06/07 05:58:32;;;;;;;;;;;19.00;60.50;;;;;;5086972;28;19916;-47
2022/06/07 06:00:59;;;;;;;;;;;18.80;59.50;;;;;;5082927;28;19912;-43
2022/06/07 06:03:26;;;;;;;;;;;18.70;61.30;;;;;;5084184;28;19950;-52
2022/06/07 06:05:53;;;;;;;;;;;18.60;62.00;;;;;;5092589;28;19908;-50
2022/06/07 06:11:09;;;;;;;;;;;18.30;62.40;;;;;;5091164;28;19998;-41
2022/06/07 06:13:36;;;;;;;;;;;18.20;63.00;;;;;;5090134;28;19952;-53
2022/06/07 06:16:04;;;;;;;;;;;18.10;63.80;;;;;;5090321;28;19909;-54
2022/06/07 06:18:32;;;;;;;;;;;18.10;63.80;;;;;;5089824;28;19908;-48
2022/06/07 06:20:59;;;;;;;;;;;18.00;64.00;;;;;;5090087;28;20302;-54
2022/06/07 06:23:25;;;;;;;;;;;17.90;64.40;;;;;;5086526;28;19908;-41
2022/06/07 06:25:52;;;;;;;;;;;17.80;64.70;;;;;;5090530;28;19995;-55
2022/06/07 06:28:19;;;;;;;;;;;17.80;65.00;;;;;;5089102;28;20453;-41
2022/06/07 06:30:47;;;;;;;;;;;17.60;64.40;;;;;;5089588;28;20362;-44
2022/06/07 06:33:15;;;;;;;;;;;17.60;65.00;;;;;;5087434;28;20358;-59
2022/06/07 06:35:51;;;;;;;;;;;17.60;65.40;;;;;;5089374;28;19978;-50
2022/06/07 06:38:19;;;;;;;;;;;17.50;65.40;;;;;;5089628;28;20290;-45
2022/06/07 06:40:45;;;;;;;;;;;17.40;66.20;;;;;;5089461;28;19916;-46
2022/06/07 06:43:13;;;;;;;;;;;17.40;66.10;;;;;;5091987;28;20381;-52
2022/06/07 06:45:41;;;;;;;;;;;17.30;66.20;;;;;;5092396;28;19985;-51
2022/06/07 06:48:08;;;;;;;;;;;17.20;66.20;;;;;;5092724;28;19909;-52
2022/06/07 06:50:36;;;;;;;;;;;17.20;66.20;;;;;;5091744;28;20024;-57
2022/06/07 06:53:03;;;;;;;;;;;17.10;66.00;;;;;;5092364;28;19908;-48
2022/06/07 06:55:29;;;;;;;;;;;17.10;66.60;;;;;;5091805;28;19931;-51
2022/06/07 06:57:56;;;;;;;;;;;17.00;66.80;;;;;;5092197;28;19908;-55
2022/06/07 07:00:23;;;;;;;;;;;17.00;66.80;;;;;;5091950;28;19984;-47
2022/06/07 07:02:50;;;;;;;;;;;17.00;66.90;;;;;;5091583;28;20385;-56
2022/06/07 07:05:17;;;;;;;;;;;16.90;67.00;;;;;;5091903;28;19908;-47
2022/06/07 07:07:46;;;;;;;;;;;16.90;66.80;;;;;;5092115;28;19924;-55
2022/06/07 07:10:13;;;;;;;;;;;16.90;67.60;;;;;;5087844;28;19908;-43
2022/06/07 07:12:40;;;;;;;;;;;16.80;67.10;;;;;;5066317;28;19909;-43
2022/06/07 07:15:13;;;;;;;;;;;16.80;67.30;;;;;;5069371;28;19915;-45
2022/06/07 07:17:40;;;;;;;;;;;16.80;66.50;;;;;;5071277;28;19916;-52
2022/06/07 07:20:07;;;;;;;;;;;16.80;66.90;;;;;;5068439;28;19999;-40
2022/06/07 07:22:35;;;;;;;;;;;16.80;67.30;;;;;;5069817;28;19923;-41
2022/06/07 07:25:02;;;;;;;;;;;16.70;67.50;;;;;;5072021;28;19908;-49
2022/06/07 07:27:29;;;;;;;;;;;16.70;67.10;;;;;;5050761;28;19916;-45
2022/06/07 07:29:55;;;;;;;;;;;16.70;67.30;;;;;;5069105;28;19936;-45
2022/06/07 07:32:22;;;;;;;;;;;16.70;67.60;;;;;;5068178;28;19951;-47
2022/06/07 07:34:49;;;;;;;;;;;16.70;67.20;;;;;;5071227;28;19965;-48
2022/06/07 07:37:17;;;;;;;;;;;16.70;67.50;;;;;;5068728;28;19909;-47
2022/06/07 07:39:44;;;;;;;;;;;16.70;67.20;;;;;;5068335;28;19924;-49
2022/06/07 07:42:10;;;;;;;;;;;16.70;67.00;;;;;;5067475;28;20000;-47
2022/06/07 07:44:38;;;;;;;;;;;16.70;67.10;;;;;;5068647;28;20008;-47
2022/06/07 07:47:04;;;;;;;;;;;16.60;66.80;;;;;;5050889;28;19909;-44
2022/06/07 07:49:32;;;;;;;;;;;16.60;67.00;;;;;;5072811;28;20347;-47
2022/06/07 07:51:59;;;;;;;;;;;16.60;67.10;;;;;;5075235;28;20007;-46
2022/06/07 07:54:26;;;;;;;;;;;16.60;66.80;;;;;;5075889;28;20429;-49
2022/06/07 07:56:54;;;;;;;;;;;16.60;67.50;;;;;;5072948;28;19919;-51
2022/06/07 07:59:22;;;;;;;;;;;16.50;67.20;;;;;;5074878;28;19913;-47
2022/06/07 08:01:49;;;;;;;;;;;16.50;67.10;;;;;;5074844;28;20019;-48
2022/06/07 08:04:17;;;;;;;;;;;16.50;66.70;;;;;;5074715;28;20352;-57
2022/06/07 08:06:44;;;;;;;;;;;16.50;66.80;;;;;;5074329;28;20329;-43
2022/06/07 08:09:11;;;;;;;;;;;16.40;67.00;;;;;;5093164;28;19920;-52
2022/06/07 08:11:39;;;;;;;;;;;16.40;66.90;;;;;;5095619;28;20331;-47
2022/06/07 08:14:08;;;;;;;;;;;16.40;67.50;;;;;;5095581;28;20005;-45
2022/06/07 08:16:36;;;;;;;;;;;16.40;67.30;;;;;;5094879;28;19916;-42
2022/06/07 08:19:03;;;;;;;;;;;16.40;67.20;;;;;;5095083;28;20001;-42
2022/06/07 08:21:30;;;;;;;;;;;16.40;67.30;;;;;;5095706;28;19915;-44
2022/06/07 08:23:58;;;;;;;;;;;16.40;67.50;;;;;;5094655;28;19908;-43
2022/06/07 08:26:29;;;;;;;;;;;16.30;67.70;;;;;;5094993;28;19909;-49
2022/06/07 08:28:55;;;;;;;;;;;16.30;67.70;;;;;;5095217;28;19919;-48
2022/06/07 08:31:24;;;;;;;;;;;16.30;68.00;;;;;;5094936;28;19916;-51
2022/06/07 08:39:21;;;;;;;;;;;16.20;68.10;;;;;;5094778;28;19919;-53
2022/06/07 08:41:48;;;;;;;;;;;16.20;68.10;;;;;;5094828;28;19912;-55
2022/06/07 08:44:19;;;;;;;;;;;16.10;67.70;;;;;;5094477;28;19977;-46
2022/06/07 08:46:46;;;;;;;;;;;16.20;68.50;;;;;;5090545;28;19957;-59
2022/06/07 08:49:13;;;;;;;;;;;16.10;68.80;;;;;;5092825;28;20347;-47
2022/06/07 08:51:46;;;;;;;;;;;16.10;68.70;;;;;;5089242;28;19912;-49
2022/06/07 08:54:17;;;;;;;;;;;16.10;69.00;;;;;;5094167;28;20011;-46
2022/06/07 08:56:44;;;;;;;;;;;16.10;69.00;;;;;;5091637;28;19912;-49
2022/06/07 08:59:17;;;;;;;;;;;16.10;69.00;;;;;;5090634;28;20015;-51
2022/06/07 09:01:54;;;;;;;;;;;16.10;68.80;;;;;;5087495;28;19924;-50
2022/06/07 09:04:23;;;;;;;;;;;16.00;69.00;;;;;;5092727;28;19923;-50
2022/06/07 09:06:55;;;;;;;;;;;16.00;69.00;;;;;;5090878;28;20316;-55
2022/06/07 09:09:23;;;;;;;;;;;16.00;69.30;;;;;;5088260;28;20274;-44
2022/06/07 09:12:15;;;;;;;;;;;16.00;69.00;;;;;;5090544;28;19912;-48
2022/06/07 09:14:42;;;;;;;;;;;15.90;68.90;;;;;;5094028;28;20005;-59
2022/06/07 09:17:12;;;;;;;;;;;15.90;69.10;;;;;;5093942;28;19916;-52
2022/06/07 09:19:39;;;;;;;;;;;15.90;70.00;;;;;;5093935;28;20406;-50
2022/06/07 09:22:15;;;;;;;;;;;16.00;71.60;;;;;;5093632;28;19927;-58
2022/06/07 09:24:43;;;;;;;;;;;16.00;71.30;;;;;;5093732;28;20360;-59
2022/06/07 09:27:15;;;;;;;;;;;16.00;71.60;;;;;;5093533;28;19911;-51
2022/06/07 09:29:43;;;;;;;;;;;16.00;71.00;;;;;;5093757;28;19908;-51
2022/06/07 09:32:11;;;;;;;;;;;15.90;71.20;;;;;;5094198;28;19909;-49
2022/06/07 09:34:48;;;;;;;;;;;16.00;71.40;;;;;;5093722;28;20382;-52
2022/06/07 09:37:16;;;;;;;;;;;16.00;71.80;;;;;;5093005;28;19908;-56
2022/06/07 09:39:44;;;;;;;;;;;15.90;71.60;;;;;;5089690;28;20366;-53
2022/06/07 09:42:23;;;;;;;;;;;16.00;71.90;;;;;;5088998;28;20399;-56
2022/06/07 09:44:54;;;;;;;;;;;16.00;71.80;;;;;;5091043;28;20343;-52
2022/06/07 09:47:21;;;;;;;;;;;16.00;71.60;;;;;;5089578;28;19915;-56
2022/06/07 09:49:56;;;;;;;;;;;15.90;71.60;;;;;;5089960;28;20259;-45
2022/06/07 09:52:31;;;;;;;;;;;15.80;71.70;;;;;;5091092;28;19908;-50
2022/06/07 09:55:00;;;;;;;;;;;15.90;72.00;;;;;;5092914;28;19981;-51
2022/06/07 09:57:40;;;;;;;;;;;15.80;70.80;;;;;;5093576;28;19908;-50
2022/06/07 10:00:36;;;;;;;;;;;15.70;71.50;;;;;;5093399;28;20018;-44
2022/06/07 10:03:27;;;;;;;;;;;15.70;70.50;;;;;;5055778;28;19909;-52
2022/06/07 10:06:12;;;;;;;;;;;15.60;70.30;;;;;;5093043;28;19991;-51
2022/06/07 10:09:00;;;;;;;;;;;15.70;71.00;;;;;;5093361;28;19992;-49
2022/06/07 10:11:42;;;;;;;;;;;15.60;70.70;;;;;;5092529;28;20266;-59
2022/06/07 10:14:18;;;;;;;;;;;15.60;70.90;;;;;;5092838;28;19915;-57
2022/06/07 10:16:44;;;;;;;;;;;15.60;71.00;;;;;;5092700;28;20002;-48
2022/06/07 10:19:11;;;;;;;;;;;15.60;71.30;;;;;;5092853;28;19912;-51
2022/06/07 10:21:49;;;;;;;;;;;15.60;71.20;;;;;;5092257;28;20377;-54
2022/06/07 10:24:20;;;;;;;;;;;15.60;71.20;;;;;;5093032;28;19908;-46
2022/06/07 10:26:50;;;;;;;;;;;15.60;71.40;;;;;;5092950;28;20406;-55
2022/06/07 10:29:36;;;;;;;;;;;15.50;71.50;;;;;;5093117;28;20353;-57
2022/06/07 10:32:03;;;;;;;;;;;15.50;71.60;;;;;;5092691;28;19908;-59
2022/06/07 10:34:48;;;;;;;;;;;15.40;71.20;;;;;;5092714;28;19946;-56
2022/06/07 10:37:17;;;;;;;;;;;15.40;71.50;;;;;;5093133;28;19908;-49
2022/06/07 10:39:50;;;;;;;;;;;15.50;72.20;;;;;;5092766;28;19939;-60
2022/06/07 10:42:20;;;;;;;;;;;15.50;72.10;;;;;;5093448;28;19908;-57
2022/06/07 10:44:50;;;;;;;;;;;15.40;72.30;;;;;;5092897;28;19908;-49
2022/06/07 10:47:36;;;;;;;;;;;15.40;72.50;;;;;;5093347;28;20017;-53
2022/06/07 10:50:21;;;;;;;;;;;15.40;72.40;;;;;;5092514;28;19955;-59
2022/06/07 10:52:48;;;;;;;;;;;15.40;72.60;;;;;;5092680;28;19948;-46
2022/06/07 10:55:19;;;;;;;;;;;15.40;72.70;;;;;;5092990;28;20035;-46
2022/06/07 10:57:55;;;;;;;;;;;15.40;72.80;;;;;;5092993;28;19947;-55
2022/06/07 11:00:44;;;;;;;;;;;15.30;72.90;;;;;;5093255;28;19961;-54
2022/06/07 11:03:15;;;;;;;;;;;15.30;72.70;;;;;;5084438;28;19908;-51
2022/06/07 11:09:19;;;;;;;;;;;15.20;72.90;;;;;;5092655;28;19950;-49
2022/06/07 11:11:47;;;;;;;;;;;15.20;73.10;;;;;;5047470;28;20119;-56
2022/06/07 11:14:32;;;;;;;;;;;15.20;73.20;;;;;;5092680;28;20305;-46
2022/06/07 11:17:05;;;;;;;;;;;15.20;73.30;;;;;;5092976;28;20278;-49
2022/06/07 11:19:32;;;;;;;;;;;15.20;73.30;;;;;;5092384;28;20010;-60
2022/06/07 11:22:02;;;;;;;;;;;15.20;73.20;;;;;;5094857;28;19990;-49
2022/06/07 11:24:30;;;;;;;;;;;15.10;72.80;;;;;;5096172;28;19915;-50
2022/06/07 11:26:58;;;;;;;;;;;15.10;73.20;;;;;;5096666;28;19965;-58
2022/06/07 11:29:24;;;;;;;;;;;15.10;73.10;;;;;;5096312;28;19908;-48
2022/06/07 11:31:52;;;;;;;;;;;15.00;73.30;;;;;;5096523;28;19908;-58
2022/06/07 11:34:33;;;;;;;;;;;15.00;73.30;;;;;;5096481;28;19954;-54
2022/06/07 11:37:22;;;;;;;;;;;15.10;73.30;;;;;;5096244;28;19912;-54
2022/06/07 11:39:57;;;;;;;;;;;15.00;73.50;;;;;;5095747;28;19920;-58
2022/06/07 11:42:33;;;;;;;;;;;15.00;73.60;;;;;;5096272;28;20269;-54
2022/06/07 11:45:03;;;;;;;;;;;15.00;73.70;;;;;;5096393;28;19969;-54
2022/06/07 11:47:36;;;;;;;;;;;15.00;74.00;;;;;;5096165;28;19912;-54
2022/06/07 11:50:10;;;;;;;;;;;15.00;73.80;;;;;;5095574;28;19912;-49
2022/06/07 11:52:53;;;;;;;;;;;15.00;73.80;;;;;;5077852;28;20416;-60
2022/06/07 11:55:22;;;;;;;;;;;14.90;73.70;;;;;;5095954;28;19915;-53
2022/06/07 11:57:56;;;;;;;;;;;14.90;73.80;;;;;;5095598;28;19908;-49
2022/06/07 12:00:22;;;;;;;;;;;14.90;73.80;;;;;;5096237;28;19998;-51
2022/06/07 12:03:01;;;;;;;;;;;14.80;73.90;;;;;;5096033;28;19915;-52
2022/06/07 12:05:29;;;;;;;;;;;14.80;73.90;;;;;;5096141;28;19916;-60
2022/06/07 12:08:01;;;;;;;;;;;14.80;73.90;;;;;;5095783;28;19927;-47
2022/06/07 12:10:30;;;;;;;;;;;14.80;74.00;;;;;;5095633;28;19980;-55
2022/06/07 12:12:59;;;;;;;;;;;14.80;74.10;;;;;;5095764;28;19909;-48
2022/06/07 12:15:29;;;;;;;;;;;14.80;74.00;;;;;;5095419;28;20414;-48
2022/06/07 12:18:03;;;;;;;;;;;14.80;73.90;;;;;;5095283;28;19912;-51
2022/06/07 12:20:37;;;;;;;;;;;14.80;74.00;;;;;;5095118;28;20010;-48
2022/06/07 12:23:24;;;;;;;;;;;14.80;74.00;;;;;;5095496;28;20016;-50
2022/06/07 12:26:01;;;;;;;;;;;14.80;74.10;;;;;;5094714;28;19908;-46
2022/06/07 12:28:30;;;;;;;;;;;14.70;74.00;;;;;;5095069;28;19908;-49
2022/06/07 12:30:58;;;;;;;;;;;14.70;73.90;;;;;;5095490;28;19931;-52
2022/06/07 12:33:32;;;;;;;;;;;14.70;74.10;;;;;;5094151;28;19915;-53
2022/06/07 12:35:59;;;;;;;;;;;14.70;74.00;;;;;;5095548;28;19915;-44
2022/06/07 12:38:27;;;;;;;;;;;14.70;74.00;;;;;;5094852;28;19969;-50
2022/06/07 12:41:17;;;;;;;;;;;14.70;73.90;;;;;;5095142;28;19927;-54
2022/06/07 12:43:54;;;;;;;;;;;14.70;73.90;;;;;;5087537;28;19961;-47
2022/06/07 12:46:25;;;;;;;;;;;14.60;74.00;;;;;;5095140;28;19950;-49
2022/06/07 12:48:52;;;;;;;;;;;14.60;73.80;;;;;;5094527;28;19962;-53
2022/06/07 12:51:25;;;;;;;;;;;14.60;73.90;;;;;;5094841;28;19951;-47
2022/06/07 12:53:59;;;;;;;;;;;14.60;74.00;;;;;;5091118;28;19954;-52
2022/06/07 12:56:30;;;;;;;;;;;14.60;73.90;;;;;;5094318;28;19981;-56
2022/06/07 12:58:57;;;;;;;;;;;14.60;73.90;;;;;;5094599;28;20366;-53
2022/06/07 13:01:35;;;;;;;;;;;14.50;73.50;;;;;;5094896;28;19916;-54
2022/06/07 13:04:07;;;;;;;;;;;14.60;73.70;;;;;;5094467;28;19908;-48
2022/06/07 13:06:33;;;;;;;;;;;14.50;73.60;;;;;;5094378;28;20374;-51
2022/06/07 13:09:03;;;;;;;;;;;14.50;73.40;;;;;;5111612;28;20052;-49
2022/06/07 13:11:32;;;;;;;;;;;14.50;73.60;;;;;;5114968;28;19953;-49
2022/06/07 13:14:00;;;;;;;;;;;14.50;73.40;;;;;;5115067;28;20002;-53
2022/06/07 13:16:42;;;;;;;;;;;14.50;73.30;;;;;;5114758;28;19908;-57
2022/06/07 13:19:15;;;;;;;;;;;14.50;73.30;;;;;;5114711;28;19920;-48
2022/06/07 13:21:59;;;;;;;;;;;14.50;73.20;;;;;;5114992;28;20407;-53
2022/06/07 13:24:49;;;;;;;;;;;14.50;73.20;;;;;;5114599;28;19986;-47
2022/06/07 13:27:40;;;;;;;;;;;14.40;72.90;;;;;;5104129;28;19957;-46
2022/06/07 13:30:18;;;;;;;;;;;14.50;73.10;;;;;;5114818;28;19933;-53
2022/06/07 13:32:45;;;;;;;;;;;14.40;72.80;;;;;;5114264;28;19959;-52
2022/06/07 13:35:22;;;;;;;;;;;14.40;73.00;;;;;;5114867;28;19908;-54
2022/06/07 13:38:02;;;;;;;;;;;14.40;72.70;;;;;;5114802;28;20316;-57
2022/06/07 13:40:31;;;;;;;;;;;14.40;72.90;;;;;;5114234;28;19969;-51
2022/06/07 13:43:13;;;;;;;;;;;14.40;72.90;;;;;;5114608;28;19908;-51
2022/06/07 13:45:44;;;;;;;;;;;14.40;72.70;;;;;;5114339;28;19934;-48
2022/06/07 13:48:16;;;;;;;;;;;14.40;72.70;;;;;;5114281;28;19955;-54
2022/06/07 13:53:49;;;;;;;;;;;14.40;72.90;;;;;;5114655;28;19972;-48
2022/06/07 13:56:17;;;;;;;;;;;14.30;73.00;;;;;;5114339;28;20377;-48
2022/06/07 13:58:49;;;;;;;;;;;14.40;73.00;;;;;;5113903;28;19922;-49
2022/06/07 14:01:19;;;;;;;;;;;14.30;73.10;;;;;;5114392;28;20281;-48
2022/06/07 14:03:53;;;;;;;;;;;14.30;73.10;;;;;;5113904;28;19961;-45
2022/06/07 14:06:32;;;;;;;;;;;14.30;73.10;;;;;;5114205;28;19914;-46
2022/06/07 14:09:00;;;;;;;;;;;14.30;73.10;;;;;;5114044;28;20412;-52
2022/06/07 14:11:28;;;;;;;;;;;14.30;73.00;;;;;;5114239;28;19908;-54
2022/06/07 14:13:54;;;;;;;;;;;14.30;72.80;;;;;;5113985;28;19908;-51
2022/06/07 14:16:34;;;;;;;;;;;14.30;73.10;;;;;;5114158;28;19998;-52
2022/06/07 14:19:06;;;;;;;;;;;14.30;73.10;;;;;;5114033;28;19914;-55
2022/06/07 14:21:33;;;;;;;;;;;14.30;73.10;;;;;;5114284;28;19912;-50
2022/06/07 14:23:59;;;;;;;;;;;14.20;73.10;;;;;;5112594;28;19908;-50
2022/06/07 14:26:26;;;;;;;;;;;14.20;73.10;;;;;;5113620;28;20308;-50
2022/06/07 14:28:53;;;;;;;;;;;14.20;73.10;;;;;;5113801;28;19907;-53
2022/06/07 14:31:22;;;;;;;;;;;14.20;73.20;;;;;;5113886;28;20358;-50
2022/06/07 14:33:49;;;;;;;;;;;14.20;73.20;;;;;;5113333;28;19915;-54
2022/06/07 14:36:16;;;;;;;;;;;14.20;73.90;;;;;;5113675;28;19915;-56
2022/06/07 14:38:44;;;;;;;;;;;14.20;73.10;;;;;;5113439;28;20258;-56
2022/06/07 14:41:10;;;;;;;;;;;14.20;73.00;;;;;;5113584;28;20029;-52
2022/06/07 14:43:38;;;;;;;;;;;14.20;73.10;;;;;;5113603;28;19908;-51
2022/06/07 14:46:11;;;;;;;;;;;14.20;73.20;;;;;;5113665;28;19914;-56
2022/06/07 14:48:38;;;;;;;;;;;14.20;73.00;;;;;;5113256;28;19912;-51
2022/06/07 14:51:15;;;;;;;;;;;14.20;73.00;;;;;;5113594;28;19914;-60
2022/06/07 14:53:43;;;;;;;;;;;14.10;73.00;;;;;;5113544;28;19908;-56
2022/06/07 14:56:13;;;;;;;;;;;14.10;72.90;;;;;;5114685;28;20105;-57